createdAt,value
2022-10-19T00:02:12.493Z,31.88
2022-10-19T00:04:39.071Z,29.92
2022-10-19T00:07:05.724Z,30.70
2022-10-19T00:09:32.496Z,31.63
2022-10-19T00:11:59.287Z,26.40
2022-10-19T00:14:25.867Z,31.05
2022-10-19T00:16:53.249Z,28.83
2022-10-19T00:19:24.479Z,24.42
2022-10-19T00:21:52.452Z,30.02
2022-10-19T00:24:19.591Z,30.05
2022-10-19T00:26:47.838Z,27.67
2022-10-19T00:29:16.973Z,29.98
2022-10-19T00:31:44.061Z,25.38
2022-10-19T00:34:10.985Z,29.95
2022-10-19T00:36:39.741Z,31.58
2022-10-19T00:39:10.501Z,22.85
2022-10-19T00:41:39.187Z,19.17
2022-10-19T00:44:27.472Z,19.20
2022-10-19T00:46:57.252Z,23.83
2022-10-19T00:49:27.179Z,24.00
2022-10-19T00:51:58.197Z,26.17
2022-10-19T00:54:25.617Z,29.10
2022-10-19T00:56:55.137Z,33.35
2022-10-19T00:59:25.115Z,28.65
2022-10-19T01:01:53.617Z,31.27
2022-10-19T01:04:22.174Z,30.88
2022-10-19T01:06:49.073Z,22.27
2022-10-19T01:09:15.983Z,22.30
2022-10-19T01:12:01.200Z,28.23
2022-10-19T01:14:59.120Z,27.30
2022-10-19T01:17:59.560Z,24.60
2022-10-19T01:20:32.366Z,19.80
2022-10-19T01:23:23.484Z,27.02
2022-10-19T01:25:56.873Z,35.25
2022-10-19T01:28:51.830Z,25.92
2022-10-19T01:31:35.717Z,34.10
2022-10-19T01:34:11.325Z,24.10
2022-10-19T01:36:52.944Z,22.85
2022-10-19T01:39:31.234Z,22.87
2022-10-19T01:42:03.586Z,28.75
2022-10-19T01:47:12.261Z,23.05
2022-10-19T01:52:12.665Z,18.98
2022-10-19T01:54:46.926Z,21.77
2022-10-19T01:57:21.553Z,22.83
2022-10-19T01:59:49.498Z,25.83
2022-10-19T02:02:18.099Z,21.83
2022-10-19T02:04:47.108Z,19.30
2022-10-19T02:07:14.216Z,18.58
2022-10-19T02:09:40.799Z,22.40
2022-10-19T02:12:11.353Z,16.27
2022-10-19T02:14:44.357Z,19.63
2022-10-19T02:17:17.056Z,21.23
2022-10-19T02:19:43.791Z,19.83
2022-10-19T02:22:12.235Z,19.40
2022-10-19T02:24:38.929Z,16.83
2022-10-19T02:27:07.858Z,18.17
2022-10-19T02:29:36.827Z,21.20
2022-10-19T02:32:04.473Z,21.75
2022-10-19T02:34:31.701Z,16.50
2022-10-19T02:36:58.664Z,19.65
2022-10-19T02:39:25.752Z,21.48
2022-10-19T02:42:11.503Z,15.65
2022-10-19T02:44:53.197Z,21.88
2022-10-19T02:47:30.252Z,17.02
2022-10-19T02:49:56.888Z,21.88
2022-10-19T02:52:23.485Z,17.85
2022-10-19T02:54:50.081Z,18.67
2022-10-19T02:57:21.299Z,16.10
2022-10-19T02:59:47.914Z,13.93
2022-10-19T03:02:16.407Z,23.42
2022-10-19T03:04:44.713Z,19.98
2022-10-19T03:07:16.094Z,21.08
2022-10-19T03:09:43.839Z,23.30
2022-10-19T03:12:12.293Z,20.98
2022-10-19T03:14:39.314Z,22.65
2022-10-19T03:17:06.021Z,22.77
2022-10-19T03:19:34.317Z,19.80
2022-10-19T03:22:01.123Z,26.67
2022-10-19T03:24:27.985Z,23.75
2022-10-19T03:26:54.692Z,26.15
2022-10-19T03:29:21.323Z,32.97
2022-10-19T03:31:48.089Z,21.88
2022-10-19T03:34:14.710Z,22.73
2022-10-19T03:36:42.481Z,26.27
2022-10-19T03:39:12.468Z,36.95
2022-10-19T03:41:39.503Z,26.58
2022-10-19T03:44:07.182Z,28.08
2022-10-19T03:46:35.767Z,29.35
2022-10-19T03:49:03.405Z,29.88
2022-10-19T03:51:31.445Z,25.02
2022-10-19T03:54:01.383Z,32.60
2022-10-19T03:56:29.950Z,25.92
2022-10-19T03:58:58.921Z,29.90
2022-10-19T04:01:31.651Z,28.70
2022-10-19T04:04:01.037Z,25.25
2022-10-19T04:06:30.495Z,26.30
2022-10-19T04:08:58.296Z,25.80
2022-10-19T04:11:27.823Z,32.25
2022-10-19T04:13:56.147Z,23.27
2022-10-19T04:16:24.555Z,28.95
2022-10-19T04:18:51.675Z,38.08
2022-10-19T04:21:33.095Z,21.48
2022-10-19T04:24:14.201Z,34.05
2022-10-19T04:26:55.152Z,46.60
2022-10-19T04:29:26.456Z,45.28
2022-10-19T04:31:56.287Z,27.60
2022-10-19T04:34:23.192Z,58.83
2022-10-19T04:36:50.167Z,38.65
2022-10-19T04:39:16.913Z,44.85
2022-10-19T04:41:43.585Z,33.63
2022-10-19T04:44:10.182Z,42.03
2022-10-19T04:46:37.608Z,39.60
2022-10-19T04:49:06.227Z,39.60
2022-10-19T04:51:32.952Z,29.45
2022-10-19T04:54:00.069Z,39.08
2022-10-19T04:56:27.551Z,44.30
2022-10-19T04:58:56.580Z,48.08
2022-10-19T05:01:24.241Z,42.85
2022-10-19T05:03:58.172Z,52.67
2022-10-19T05:06:26.367Z,43.40
2022-10-19T05:08:53.627Z,43.50
2022-10-19T05:11:20.924Z,34.22
2022-10-19T05:13:48.124Z,38.83
2022-10-19T05:16:18.261Z,32.78
2022-10-19T05:18:53.267Z,39.72
2022-10-19T05:21:21.855Z,26.60
2022-10-19T05:23:52.312Z,30.55
2022-10-19T05:26:21.792Z,31.65
2022-10-19T05:28:49.920Z,33.28
2022-10-19T05:31:20.175Z,39.95
2022-10-19T05:33:47.396Z,31.85
2022-10-19T05:36:15.813Z,41.53
2022-10-19T05:38:44.059Z,26.33
2022-10-19T05:41:11.551Z,16.55
2022-10-19T05:43:39.322Z,21.77
2022-10-19T05:46:08.633Z,17.73
2022-10-19T05:48:35.963Z,19.40
2022-10-19T05:51:05.357Z,12.35
2022-10-19T05:53:33.375Z,9.65
2022-10-19T05:56:00.039Z,18.88
2022-10-19T05:58:27.036Z,20.67
2022-10-19T06:00:58.597Z,19.95
2022-10-19T06:03:26.052Z,15.95
2022-10-19T06:05:54.091Z,21.30
2022-10-19T06:08:22.208Z,10.65
2022-10-19T06:10:49.710Z,19.88
2022-10-19T06:13:18.486Z,18.48
2022-10-19T06:15:45.191Z,21.60
2022-10-19T06:18:13.096Z,33.38
2022-10-19T06:20:42.004Z,24.80
2022-10-19T06:23:09.348Z,22.35
2022-10-19T06:25:36.863Z,17.63
2022-10-19T06:28:04.160Z,23.58
2022-10-19T06:30:30.793Z,24.38
2022-10-19T06:32:59.019Z,14.25
2022-10-19T06:35:25.898Z,22.00
2022-10-19T06:37:52.614Z,21.33
2022-10-19T06:40:19.382Z,15.93
2022-10-19T06:42:46.242Z,24.02
2022-10-19T06:45:12.945Z,33.13
2022-10-19T06:50:14.352Z,18.35
2022-10-19T06:52:41.407Z,25.73
2022-10-19T06:55:08.722Z,22.98
2022-10-19T06:57:35.875Z,21.40
2022-10-19T07:00:04.031Z,19.50
2022-10-19T07:02:30.811Z,23.65
2022-10-19T07:04:57.442Z,20.88
2022-10-19T07:07:24.350Z,28.10
2022-10-19T07:09:51.129Z,24.10
2022-10-19T07:12:17.736Z,23.20
2022-10-19T07:14:44.364Z,19.55
2022-10-19T07:17:12.289Z,21.27
2022-10-19T07:19:39.018Z,27.85
2022-10-19T07:22:06.936Z,24.00
2022-10-19T07:24:33.526Z,20.98
2022-10-19T07:27:00.213Z,23.20
2022-10-19T07:29:26.963Z,23.52
2022-10-19T07:31:53.715Z,25.33
2022-10-19T07:34:23.120Z,23.73
2022-10-19T07:36:52.758Z,26.65
2022-10-19T07:39:19.529Z,22.08
2022-10-19T07:41:46.691Z,28.27
2022-10-19T07:44:15.891Z,23.10
2022-10-19T07:46:43.107Z,24.40
2022-10-19T07:49:20.007Z,23.33
2022-10-19T07:51:47.563Z,18.52
2022-10-19T07:54:14.292Z,21.48
2022-10-19T07:56:41.022Z,28.40
2022-10-19T07:59:07.761Z,30.73
2022-10-19T08:01:41.686Z,18.13
2022-10-19T08:06:55.383Z,18.25
2022-10-19T08:12:13.800Z,24.17
2022-10-19T08:14:41.451Z,23.83
2022-10-19T08:17:12.054Z,28.48
2022-10-19T08:19:43.343Z,18.92
2022-10-19T08:22:10.657Z,23.00
2022-10-19T08:24:37.503Z,21.77
2022-10-19T08:27:04.179Z,21.98
2022-10-19T08:29:31.697Z,23.27
2022-10-19T08:31:59.550Z,19.98
2022-10-19T08:34:26.752Z,17.63
2022-10-19T08:36:53.556Z,22.23
2022-10-19T08:39:20.143Z,18.55
2022-10-19T08:42:04.223Z,20.55
2022-10-19T08:44:48.874Z,17.90
2022-10-19T08:47:26.653Z,20.10
2022-10-19T08:49:54.011Z,17.13
2022-10-19T08:52:34.387Z,12.88
2022-10-19T08:55:15.112Z,18.58
2022-10-19T08:58:06.072Z,12.57
2022-10-19T09:00:42.756Z,9.13
2022-10-19T09:03:43.878Z,11.52
2022-10-19T09:06:29.480Z,11.43
2022-10-19T09:08:57.965Z,5.32
2022-10-19T09:11:32.842Z,7.72
2022-10-19T09:14:15.042Z,7.43
2022-10-19T09:19:23.047Z,9.73
2022-10-19T09:22:01.282Z,6.57
2022-10-19T09:24:51.927Z,10.95
2022-10-19T09:27:29.921Z,21.60
2022-10-19T09:30:04.874Z,10.15
2022-10-19T09:32:38.101Z,6.30
2022-10-19T09:35:16.014Z,10.13
2022-10-19T09:37:47.097Z,7.68
2022-10-19T09:40:25.069Z,6.63
2022-10-19T09:42:57.198Z,18.95
2022-10-19T09:45:36.544Z,11.82
2022-10-19T09:48:13.422Z,11.23
2022-10-19T09:50:43.636Z,4.65
2022-10-19T09:53:19.688Z,12.50
2022-10-19T09:55:51.632Z,16.38
2022-10-19T09:58:20.226Z,10.25
2022-10-19T10:00:54.879Z,13.07
2022-10-19T10:03:35.477Z,8.20
2022-10-19T10:06:06.614Z,10.82
2022-10-19T10:08:45.153Z,12.27
2022-10-19T10:11:13.038Z,7.57
2022-10-19T10:13:42.829Z,4.93
2022-10-19T10:16:14.138Z,5.88
2022-10-19T10:18:49.883Z,12.45
2022-10-19T10:21:34.863Z,11.18
2022-10-19T10:24:06.586Z,11.07
2022-10-19T10:26:42.584Z,8.98
2022-10-19T10:29:28.793Z,10.50
2022-10-19T10:32:00.428Z,10.45
2022-10-19T10:34:51.903Z,10.80
2022-10-19T10:37:24.898Z,9.82
2022-10-19T10:39:59.234Z,9.20
2022-10-19T10:42:35.198Z,6.65
2022-10-19T10:45:02.982Z,8.68
2022-10-19T10:47:30.988Z,4.22
2022-10-19T10:49:59.065Z,4.78
2022-10-19T10:52:29.113Z,6.82
2022-10-19T10:55:01.761Z,5.20
2022-10-19T10:57:53.029Z,2.55
2022-10-19T11:00:22.442Z,6.60
2022-10-19T11:03:12.149Z,5.38
2022-10-19T11:05:46.774Z,7.53
2022-10-19T11:08:20.989Z,9.52
2022-10-19T11:11:00.693Z,6.25
2022-10-19T11:13:39.321Z,9.80
2022-10-19T11:16:24.206Z,7.88
2022-10-19T11:18:57.212Z,9.00
2022-10-19T11:21:48.683Z,13.23
2022-10-19T11:24:21.468Z,6.93
2022-10-19T11:27:04.702Z,8.60
2022-10-19T11:30:04.583Z,6.60
2022-10-19T11:32:46.064Z,8.60
2022-10-19T11:35:15.534Z,5.50
2022-10-19T11:38:18.143Z,9.07
2022-10-19T11:41:17.835Z,5.55
2022-10-19T11:43:54.724Z,4.63
2022-10-19T11:46:35.202Z,9.07
2022-10-19T11:49:25.191Z,9.35
2022-10-19T11:52:05.346Z,9.02
2022-10-19T11:54:59.542Z,5.07
2022-10-19T11:57:31.179Z,8.50
2022-10-19T12:00:37.684Z,8.15
2022-10-19T12:03:25.715Z,4.82
2022-10-19T12:06:22.289Z,8.10
2022-10-19T12:08:55.307Z,7.55
2022-10-19T12:12:04.330Z,4.78
2022-10-19T12:14:34.622Z,6.88
2022-10-19T12:17:08.081Z,14.63
2022-10-19T12:19:44.153Z,6.10
2022-10-19T12:22:24.259Z,7.13
2022-10-19T12:24:53.289Z,14.25
2022-10-19T12:27:30.539Z,5.63
2022-10-19T12:30:03.747Z,9.48
2022-10-19T12:32:37.431Z,10.02
2022-10-19T12:35:27.798Z,10.05
2022-10-19T12:38:05.550Z,11.13
2022-10-19T12:40:32.312Z,11.68
2022-10-19T12:43:18.773Z,6.40
2022-10-19T12:45:54.487Z,15.13
2022-10-19T12:48:24.826Z,6.97
2022-10-19T12:50:53.800Z,10.00
2022-10-19T12:56:12.281Z,5.43
2022-10-19T12:58:46.570Z,4.68
2022-10-19T13:01:22.339Z,9.57
2022-10-19T13:03:54.137Z,5.63
2022-10-19T13:06:23.426Z,6.82
2022-10-19T13:08:53.020Z,7.82
2022-10-19T13:11:21.042Z,5.53
2022-10-19T13:14:01.914Z,5.35
2022-10-19T13:16:28.509Z,10.20
2022-10-19T13:19:13.420Z,4.32
2022-10-19T13:21:52.375Z,14.10
2022-10-19T13:24:25.149Z,9.38
2022-10-19T13:27:04.278Z,7.30
2022-10-19T13:29:44.721Z,4.00
2022-10-19T13:32:39.376Z,12.30
2022-10-19T13:35:25.649Z,7.78
2022-10-19T13:38:12.030Z,10.52
2022-10-19T13:40:59.690Z,8.02
2022-10-19T13:43:30.166Z,14.68
2022-10-19T13:46:29.974Z,10.20
2022-10-19T13:48:56.616Z,7.88
2022-10-19T13:51:57.401Z,12.98
2022-10-19T13:54:42.960Z,13.52
2022-10-19T13:57:34.829Z,3.83
2022-10-19T14:00:13.856Z,8.82
2022-10-19T14:03:11.688Z,6.15
2022-10-19T14:05:57.217Z,10.85
2022-10-19T14:08:47.824Z,8.43
2022-10-19T14:11:21.774Z,5.38
2022-10-19T14:14:10.408Z,13.75
2022-10-19T14:17:04.055Z,8.35
2022-10-19T14:19:42.449Z,9.90
2022-10-19T14:22:26.616Z,11.40
2022-10-19T14:25:01.800Z,8.25
2022-10-19T14:27:30.096Z,9.60
2022-10-19T14:29:57.153Z,7.80
2022-10-19T14:32:27.342Z,7.68
2022-10-19T14:37:31.719Z,9.32
2022-10-19T14:40:26.638Z,15.40
2022-10-19T14:42:56.779Z,8.93
2022-10-19T14:45:29.095Z,9.88
2022-10-19T14:47:57.276Z,8.00
2022-10-19T14:50:29.753Z,8.15
2022-10-19T14:53:30.336Z,12.63
2022-10-19T14:56:02.469Z,10.48
2022-10-19T14:58:36.025Z,14.15
2022-10-19T15:01:02.990Z,14.25
2022-10-19T15:03:30.848Z,15.45
2022-10-19T15:06:06.397Z,8.32
2022-10-19T15:08:43.760Z,9.70
2022-10-19T15:11:33.331Z,7.28
2022-10-19T15:14:06.383Z,8.88
2022-10-19T15:16:39.080Z,7.90
2022-10-19T15:19:14.561Z,8.05
2022-10-19T15:21:41.265Z,13.15
2022-10-19T15:24:22.985Z,8.02
2022-10-19T15:27:06.508Z,16.58
2022-10-19T15:29:35.225Z,15.02
2022-10-19T15:32:16.809Z,13.57
2022-10-19T15:34:45.128Z,10.50
2022-10-19T15:37:20.279Z,15.45
2022-10-19T15:39:47.657Z,8.80
2022-10-19T15:42:29.230Z,9.52
2022-10-19T15:44:55.954Z,13.43
2022-10-19T15:47:24.774Z,18.02
2022-10-19T15:49:55.911Z,15.55
2022-10-19T15:52:29.679Z,8.82
2022-10-19T15:54:59.326Z,12.30
2022-10-19T15:57:34.846Z,12.45
2022-10-19T16:00:22.242Z,11.48
2022-10-19T16:02:48.981Z,9.38
2022-10-19T16:05:15.695Z,15.05
2022-10-19T16:07:42.678Z,10.55
2022-10-19T16:10:16.807Z,14.07
2022-10-19T16:12:43.543Z,16.65
2022-10-19T16:15:22.327Z,24.65
2022-10-19T16:17:52.449Z,19.13
2022-10-19T16:20:19.433Z,13.13
2022-10-19T16:22:47.689Z,11.38
2022-10-19T16:25:15.166Z,15.38
2022-10-19T16:27:42.182Z,12.88
2022-10-19T16:30:09.482Z,10.80
2022-10-19T16:32:36.328Z,15.25
2022-10-19T16:35:03.241Z,15.38
2022-10-19T16:37:30.042Z,9.43
2022-10-19T16:39:56.663Z,13.13
2022-10-19T16:42:25.634Z,11.73
2022-10-19T16:44:55.579Z,21.13
2022-10-19T16:47:22.365Z,11.75
2022-10-19T16:49:56.964Z,11.23
2022-10-19T16:52:23.661Z,11.15
2022-10-19T16:54:50.519Z,12.07
2022-10-19T16:57:17.145Z,10.77
2022-10-19T16:59:43.885Z,14.95
2022-10-19T17:02:11.588Z,18.08
2022-10-19T17:04:39.065Z,12.07
2022-10-19T17:07:05.948Z,14.02
2022-10-19T17:09:52.260Z,11.05
2022-10-19T17:12:19.449Z,17.67
2022-10-19T17:14:46.147Z,13.63
2022-10-19T17:17:13.165Z,15.55
2022-10-19T17:19:39.955Z,13.25
2022-10-19T17:22:09.519Z,16.42
2022-10-19T17:24:37.463Z,12.68
2022-10-19T17:27:04.178Z,14.45
2022-10-19T17:29:30.937Z,15.80
2022-10-19T17:31:58.290Z,10.45
2022-10-19T17:34:25.283Z,14.65
2022-10-19T17:36:51.933Z,12.95
2022-10-19T17:39:25.553Z,13.50
2022-10-19T17:42:01.648Z,20.75
2022-10-19T17:46:56.806Z,9.77
2022-10-19T17:49:23.410Z,11.30
2022-10-19T17:51:52.769Z,10.82
2022-10-19T17:54:19.487Z,14.93
2022-10-19T17:56:46.172Z,12.73
2022-10-19T17:59:13.608Z,13.52
2022-10-19T18:01:40.673Z,14.80
2022-10-19T18:04:07.351Z,14.30
2022-10-19T18:06:36.609Z,16.00
2022-10-19T18:09:06.144Z,13.38
2022-10-19T18:11:38.670Z,14.98
2022-10-19T18:14:08.292Z,14.02
2022-10-19T18:16:46.996Z,12.15
2022-10-19T18:19:16.287Z,14.73
2022-10-19T18:21:45.907Z,11.00
2022-10-19T18:24:21.975Z,11.73
2022-10-19T18:26:50.346Z,13.82
2022-10-19T18:29:21.068Z,12.93
2022-10-19T18:31:55.205Z,22.15
2022-10-19T18:34:24.612Z,13.38
2022-10-19T18:36:52.032Z,15.23
2022-10-19T18:39:19.198Z,17.30
2022-10-19T18:41:46.192Z,14.38
2022-10-19T18:44:13.750Z,11.70
2022-10-19T18:46:41.294Z,12.90
2022-10-19T18:49:08.417Z,16.20
2022-10-19T18:51:35.737Z,17.83
2022-10-19T18:54:02.709Z,13.13
2022-10-19T18:56:29.913Z,20.10
2022-10-19T18:58:57.155Z,13.63
2022-10-19T19:01:26.969Z,12.10
2022-10-19T19:03:56.899Z,14.82
2022-10-19T19:06:29.564Z,16.58
2022-10-19T19:09:01.335Z,17.23
2022-10-19T19:11:36.776Z,15.48
2022-10-19T19:14:15.842Z,14.48
2022-10-19T19:16:44.037Z,18.65
2022-10-19T19:19:13.261Z,20.95
2022-10-19T19:21:44.104Z,14.65
2022-10-19T19:24:14.583Z,16.00
2022-10-19T19:26:43.445Z,14.38
2022-10-19T19:29:10.512Z,18.17
2022-10-19T19:31:37.493Z,12.75
2022-10-19T19:34:06.333Z,15.60
2022-10-19T19:36:33.911Z,12.10
2022-10-19T19:39:01.412Z,18.38
2022-10-19T19:41:32.554Z,13.05
2022-10-19T19:43:59.702Z,11.13
2022-10-19T19:46:27.301Z,21.88
2022-10-19T19:49:02.881Z,17.25
2022-10-19T19:51:31.659Z,13.27
2022-10-19T19:53:59.024Z,18.48
2022-10-19T19:56:26.170Z,16.02
2022-10-19T19:58:58.460Z,17.25
2022-10-19T20:01:26.817Z,19.05
2022-10-19T20:03:53.800Z,17.95
2022-10-19T20:06:24.972Z,19.08
2022-10-19T20:11:19.533Z,17.40
2022-10-19T20:13:46.446Z,14.55
2022-10-19T20:16:15.807Z,13.63
2022-10-19T20:18:45.658Z,14.43
2022-10-19T20:21:12.958Z,18.73
2022-10-19T20:23:39.898Z,14.27
2022-10-19T20:26:06.715Z,12.95
2022-10-19T20:28:33.502Z,16.08
2022-10-19T20:31:05.295Z,27.25
2022-10-19T20:33:34.163Z,19.00
2022-10-19T20:36:10.895Z,18.92
2022-10-19T20:38:38.678Z,19.52
2022-10-19T20:41:09.790Z,16.60
2022-10-19T20:43:37.514Z,17.75
2022-10-19T20:46:17.782Z,15.45
2022-10-19T20:48:45.367Z,16.92
2022-10-19T20:51:32.118Z,19.13
2022-10-19T20:54:01.687Z,16.58
2022-10-19T20:56:31.791Z,18.92
2022-10-19T21:01:30.176Z,16.45
2022-10-19T21:03:59.012Z,18.40
2022-10-19T21:06:27.014Z,17.42
2022-10-19T21:08:54.551Z,17.98
2022-10-19T21:11:24.597Z,16.58
2022-10-19T21:13:56.368Z,20.75
2022-10-19T21:16:27.527Z,19.15
2022-10-19T21:18:54.831Z,17.67
2022-10-19T21:21:24.935Z,19.02
2022-10-19T21:23:55.427Z,18.67
2022-10-19T21:26:25.250Z,24.55
2022-10-19T21:28:55.139Z,19.23
2022-10-19T21:31:23.652Z,19.50
2022-10-19T21:33:51.775Z,20.77
2022-10-19T21:36:20.137Z,16.90
2022-10-19T21:38:47.626Z,24.13
2022-10-19T21:41:16.473Z,18.35
2022-10-19T21:43:43.636Z,18.73
2022-10-19T21:46:16.113Z,18.02
2022-10-19T21:48:43.758Z,17.63
2022-10-19T21:51:36.303Z,16.20
2022-10-19T21:54:08.075Z,23.33
2022-10-19T21:56:34.857Z,18.50
2022-10-19T21:59:01.469Z,20.60
2022-10-19T22:01:29.942Z,18.98
2022-10-19T22:04:01.741Z,24.48
2022-10-19T22:06:30.571Z,23.70
2022-10-19T22:08:58.178Z,19.33
2022-10-19T22:11:25.439Z,27.83
2022-10-19T22:13:57.019Z,19.45
2022-10-19T22:16:24.778Z,27.20
2022-10-19T22:18:52.588Z,24.48
2022-10-19T22:21:26.100Z,27.60
2022-10-19T22:24:00.988Z,19.83
2022-10-19T22:26:33.645Z,20.75
2022-10-19T22:29:01.421Z,27.63
2022-10-19T22:31:29.690Z,22.17
2022-10-19T22:33:56.362Z,28.88
2022-10-19T22:36:22.966Z,27.45
2022-10-19T22:38:49.564Z,25.50
2022-10-19T22:41:16.931Z,24.38
2022-10-19T22:43:43.510Z,23.80
2022-10-19T22:46:10.225Z,29.45
2022-10-19T22:48:37.096Z,29.05
2022-10-19T22:51:03.984Z,28.05
2022-10-19T22:53:30.776Z,24.30
2022-10-19T22:55:57.586Z,28.05
2022-10-19T22:58:24.186Z,27.40
2022-10-19T23:01:26.695Z,26.98
2022-10-19T23:03:54.538Z,27.05
2022-10-19T23:06:21.995Z,29.05
2022-10-19T23:08:49.373Z,26.80
2022-10-19T23:11:16.806Z,23.90
2022-10-19T23:13:43.903Z,25.88
2022-10-19T23:16:10.681Z,32.63
2022-10-19T23:18:39.679Z,22.00
2022-10-19T23:21:10.699Z,27.75
2022-10-19T23:23:37.422Z,30.77
2022-10-19T23:26:05.642Z,24.98
2022-10-19T23:28:34.389Z,32.95
2022-10-19T23:31:30.275Z,25.55
2022-10-19T23:33:56.970Z,33.13
2022-10-19T23:36:27.045Z,32.75
2022-10-19T23:38:54.936Z,34.75
2022-10-19T23:41:22.817Z,32.97
2022-10-19T23:43:49.667Z,26.90
2022-10-19T23:46:16.730Z,27.50
2022-10-19T23:48:43.344Z,30.38
2022-10-19T23:51:12.888Z,33.65
2022-10-19T23:53:41.719Z,34.03
2022-10-19T23:56:27.854Z,34.10
2022-10-19T23:58:55.087Z,34.13
